createdAt,value
2023-01-17T00:02:24.531Z,100.00
2023-01-17T00:05:46.309Z,100.00
2023-01-17T00:09:09.744Z,100.00
2023-01-17T00:12:12.746Z,100.00
2023-01-17T00:15:16.820Z,100.00
2023-01-17T00:18:19.688Z,100.00
2023-01-17T00:21:42.029Z,100.00
2023-01-17T00:25:07.045Z,100.00
2023-01-17T00:28:13.767Z,100.00
2023-01-17T00:31:17.855Z,100.00
2023-01-17T00:34:21.514Z,100.00
2023-01-17T00:37:24.179Z,100.00
2023-01-17T00:40:26.725Z,100.00
2023-01-17T00:43:49.724Z,100.00
2023-01-17T00:47:10.785Z,100.00
2023-01-17T00:50:32.481Z,100.00
2023-01-17T00:53:54.134Z,100.00
2023-01-17T00:57:16.357Z,100.00
2023-01-17T01:00:37.978Z,100.00
2023-01-17T01:03:59.593Z,100.00
2023-01-17T01:07:21.753Z,100.00
2023-01-17T01:10:43.213Z,100.00
2023-01-17T01:14:05.234Z,100.00
2023-01-17T01:17:27.123Z,100.00
2023-01-17T01:20:48.674Z,100.00
2023-01-17T01:24:10.557Z,100.00
2023-01-17T01:27:32.757Z,100.00
2023-01-17T01:30:55.335Z,100.00
2023-01-17T01:33:57.949Z,100.00
2023-01-17T01:37:01.665Z,100.00
2023-01-17T01:40:07.506Z,100.00
2023-01-17T01:43:13.191Z,100.00
2023-01-17T01:46:19.593Z,100.00
2023-01-17T01:49:25.886Z,100.00
2023-01-17T01:52:37.056Z,100.00
2023-01-17T01:55:42.304Z,100.00
2023-01-17T01:58:49.727Z,100.00
2023-01-17T02:01:58.288Z,100.00
2023-01-17T02:05:04.433Z,100.00
2023-01-17T02:08:10.812Z,100.00
2023-01-17T02:11:13.933Z,100.00
2023-01-17T02:14:18.502Z,100.00
2023-01-17T02:17:50.351Z,100.00
2023-01-17T02:21:10.163Z,100.00
2023-01-17T02:24:25.821Z,100.00
2023-01-17T02:27:52.250Z,100.00
2023-01-17T02:31:17.794Z,100.00
2023-01-17T02:34:34.843Z,100.00
2023-01-17T02:37:43.108Z,100.00
2023-01-17T02:40:53.123Z,100.00
2023-01-17T02:43:57.705Z,100.00
2023-01-17T02:47:00.475Z,100.00
2023-01-17T02:50:13.780Z,100.00
2023-01-17T02:53:32.043Z,100.00
2023-01-17T02:56:54.035Z,100.00
2023-01-17T03:00:05.807Z,100.00
2023-01-17T03:03:31.017Z,100.00
2023-01-17T03:06:56.607Z,100.00
2023-01-17T03:10:03.649Z,100.00
2023-01-17T03:13:06.342Z,100.00
2023-01-17T03:16:18.042Z,100.00
2023-01-17T03:19:21.251Z,100.00
2023-01-17T03:22:24.449Z,100.00
2023-01-17T03:25:27.411Z,100.00
2023-01-17T03:28:30.670Z,100.00
2023-01-17T03:31:33.672Z,100.00
2023-01-17T03:34:36.877Z,100.00
2023-01-17T03:37:39.638Z,100.00
2023-01-17T03:40:42.902Z,100.00
2023-01-17T03:43:45.662Z,100.00
2023-01-17T03:46:50.027Z,100.00
2023-01-17T03:49:53.698Z,100.00
2023-01-17T03:52:56.859Z,100.00
2023-01-17T03:56:00.369Z,100.00
2023-01-17T03:59:05.000Z,100.00
2023-01-17T04:02:07.833Z,100.00
2023-01-17T04:05:13.046Z,100.00
2023-01-17T04:08:16.523Z,100.00
2023-01-17T04:11:19.557Z,100.00
2023-01-17T04:14:22.127Z,100.00
2023-01-17T04:17:24.963Z,100.00
2023-01-17T04:20:39.141Z,100.00
2023-01-17T04:23:41.906Z,100.00
2023-01-17T04:26:45.033Z,100.00
2023-01-17T04:29:47.938Z,100.00
2023-01-17T04:32:51.347Z,100.00
2023-01-17T04:35:57.109Z,100.00
2023-01-17T04:39:00.390Z,100.00
2023-01-17T04:42:03.405Z,100.00
2023-01-17T04:45:08.482Z,100.00
2023-01-17T04:48:17.266Z,100.00
2023-01-17T04:51:20.331Z,100.00
2023-01-17T04:54:25.005Z,100.00
2023-01-17T04:57:28.878Z,100.00
2023-01-17T05:00:32.929Z,100.00
2023-01-17T05:03:35.833Z,100.00
2023-01-17T05:06:39.342Z,100.00
2023-01-17T05:09:43.716Z,100.00
2023-01-17T05:12:57.210Z,100.00
2023-01-17T05:16:00.193Z,100.00
2023-01-17T05:19:04.244Z,100.00
2023-01-17T05:22:16.024Z,100.00
2023-01-17T05:25:24.661Z,100.00
2023-01-17T05:28:27.328Z,100.00
2023-01-17T05:31:40.236Z,100.00
2023-01-17T05:34:47.587Z,100.00
2023-01-17T05:37:53.072Z,100.00
2023-01-17T05:40:55.690Z,100.00
2023-01-17T05:44:00.388Z,100.00
2023-01-17T05:47:07.952Z,100.00
2023-01-17T05:50:18.036Z,100.00
2023-01-17T05:53:22.085Z,100.00
2023-01-17T05:56:25.742Z,100.00
2023-01-17T05:59:36.884Z,100.00
2023-01-17T06:02:45.421Z,100.00
2023-01-17T06:05:50.239Z,100.00
2023-01-17T06:08:59.961Z,100.00
2023-01-17T06:12:09.659Z,100.00
2023-01-17T06:15:24.155Z,100.00
2023-01-17T06:18:27.399Z,100.00
2023-01-17T06:21:30.802Z,100.00
2023-01-17T06:24:34.223Z,100.00
2023-01-17T06:27:37.275Z,100.00
2023-01-17T06:30:41.902Z,100.00
2023-01-17T06:33:51.279Z,100.00
2023-01-17T06:36:54.974Z,99.93
2023-01-17T06:40:09.487Z,99.89
2023-01-17T06:43:14.278Z,99.46
2023-01-17T06:46:19.453Z,99.33
2023-01-17T06:49:22.533Z,99.33
2023-01-17T06:52:26.127Z,99.04
2023-01-17T06:55:33.833Z,99.24
2023-01-17T06:58:38.030Z,98.93
2023-01-17T07:01:42.090Z,98.89
2023-01-17T07:04:52.317Z,99.00
2023-01-17T07:07:56.091Z,98.87
2023-01-17T07:11:06.244Z,98.96
2023-01-17T07:14:13.800Z,98.86
2023-01-17T07:17:17.120Z,98.93
2023-01-17T07:20:22.094Z,98.85
2023-01-17T07:23:32.230Z,98.92
2023-01-17T07:26:44.445Z,98.88
2023-01-17T07:29:49.818Z,99.06
2023-01-17T07:32:56.665Z,98.90
2023-01-17T07:36:07.014Z,99.05
2023-01-17T07:39:11.492Z,99.19
2023-01-17T07:42:16.385Z,99.12
2023-01-17T07:45:22.081Z,99.08
2023-01-17T07:48:29.233Z,99.10
2023-01-17T07:51:35.057Z,99.04
2023-01-17T07:54:40.437Z,98.89
2023-01-17T07:57:49.355Z,98.16
2023-01-17T08:00:52.668Z,97.21
2023-01-17T08:04:00.450Z,96.18
2023-01-17T08:07:04.321Z,95.09
2023-01-17T08:10:14.152Z,95.14
2023-01-17T08:13:17.641Z,94.95
2023-01-17T08:16:22.215Z,94.85
2023-01-17T08:19:26.101Z,94.82
2023-01-17T08:22:31.147Z,95.05
2023-01-17T08:25:35.333Z,94.88
2023-01-17T08:28:39.132Z,94.53
2023-01-17T08:31:50.981Z,94.40
2023-01-17T08:34:56.672Z,93.53
2023-01-17T08:38:09.288Z,91.89
2023-01-17T08:41:21.739Z,88.76
2023-01-17T08:44:26.983Z,86.74
2023-01-17T08:47:31.480Z,83.94
2023-01-17T08:50:36.046Z,81.59
2023-01-17T08:53:39.069Z,79.53
2023-01-17T08:56:47.023Z,76.26
2023-01-17T08:59:50.952Z,75.25
2023-01-17T09:02:55.231Z,74.24
2023-01-17T09:06:12.548Z,76.36
2023-01-17T09:09:17.857Z,71.93
2023-01-17T09:12:22.915Z,75.21
2023-01-17T09:15:27.176Z,76.55
2023-01-17T09:18:34.271Z,74.08
2023-01-17T09:21:38.324Z,74.29
2023-01-17T09:24:42.197Z,75.36
2023-01-17T09:27:48.257Z,73.11
2023-01-17T09:30:51.490Z,72.33
2023-01-17T09:33:56.235Z,68.62
2023-01-17T09:36:59.620Z,64.28
2023-01-17T09:40:08.009Z,63.59
2023-01-17T09:43:21.010Z,64.60
2023-01-17T09:46:39.343Z,68.24
2023-01-17T09:49:47.250Z,69.22
2023-01-17T09:53:00.855Z,67.21
2023-01-17T09:56:26.072Z,66.51
2023-01-17T09:59:45.613Z,68.26
2023-01-17T10:03:17.375Z,66.07
2023-01-17T10:06:51.203Z,65.39
2023-01-17T10:09:58.693Z,61.80
2023-01-17T10:13:24.633Z,60.17
2023-01-17T10:16:42.379Z,55.58
2023-01-17T10:20:01.183Z,56.53
2023-01-17T10:23:28.106Z,58.25
2023-01-17T10:26:33.565Z,56.33
2023-01-17T10:29:36.969Z,56.51
2023-01-17T10:32:48.295Z,55.52
2023-01-17T10:36:05.345Z,56.93
2023-01-17T10:39:26.255Z,58.08
2023-01-17T10:42:38.171Z,55.87
2023-01-17T10:45:49.171Z,54.28
2023-01-17T10:48:53.972Z,57.30
2023-01-17T10:52:23.035Z,59.71
2023-01-17T10:55:36.222Z,61.01
2023-01-17T10:58:39.979Z,62.70
2023-01-17T11:01:43.740Z,65.26
2023-01-17T11:04:55.019Z,65.37
2023-01-17T11:08:04.100Z,67.41
2023-01-17T11:11:09.113Z,67.19
2023-01-17T11:14:27.968Z,67.67
2023-01-17T11:17:34.084Z,67.92
2023-01-17T11:20:40.124Z,68.60
2023-01-17T11:23:51.044Z,68.83
2023-01-17T11:26:54.413Z,69.21
2023-01-17T11:30:18.807Z,69.36
2023-01-17T11:33:49.149Z,70.64
2023-01-17T11:37:20.301Z,70.58
2023-01-17T11:40:41.721Z,71.05
2023-01-17T11:43:52.174Z,72.01
2023-01-17T11:47:15.822Z,71.87
2023-01-17T11:50:26.303Z,71.44
2023-01-17T11:53:35.549Z,71.57
2023-01-17T11:56:47.642Z,71.52
2023-01-17T12:00:00.536Z,72.16
2023-01-17T12:03:26.345Z,72.18
2023-01-17T12:06:58.784Z,72.27
2023-01-17T12:10:15.021Z,72.94
2023-01-17T12:13:56.944Z,71.67
2023-01-17T12:17:09.035Z,71.12
2023-01-17T12:20:46.604Z,72.00
2023-01-17T12:23:59.294Z,71.54
2023-01-17T12:27:14.523Z,72.51
2023-01-17T12:30:32.995Z,72.67
2023-01-17T12:33:57.157Z,73.04
2023-01-17T12:37:24.764Z,73.01
2023-01-17T12:40:46.242Z,72.78
2023-01-17T12:43:54.399Z,72.26
2023-01-17T12:47:05.022Z,72.52
2023-01-17T12:50:43.985Z,71.25
2023-01-17T12:54:30.253Z,71.28
2023-01-17T12:57:40.939Z,72.09
2023-01-17T13:00:52.126Z,73.62
2023-01-17T13:04:33.587Z,76.31
2023-01-17T13:07:54.038Z,76.64
2023-01-17T13:11:13.297Z,77.26
2023-01-17T13:14:18.000Z,78.20
2023-01-17T13:17:32.031Z,78.82
2023-01-17T13:20:57.056Z,79.94
2023-01-17T13:24:13.014Z,80.01
2023-01-17T13:27:36.435Z,79.91
2023-01-17T13:30:58.039Z,80.03
2023-01-17T13:34:25.553Z,79.81
2023-01-17T13:37:47.380Z,80.11
2023-01-17T13:40:59.095Z,79.53
2023-01-17T13:44:24.982Z,79.65
2023-01-17T13:47:45.016Z,80.15
2023-01-17T13:51:07.010Z,80.40
2023-01-17T13:54:31.336Z,80.52
2023-01-17T13:57:46.838Z,81.03
2023-01-17T14:00:50.934Z,81.13
2023-01-17T14:04:08.198Z,81.47
2023-01-17T14:07:27.143Z,81.64
2023-01-17T14:10:48.114Z,82.52
2023-01-17T14:13:54.951Z,82.60
2023-01-17T14:17:43.903Z,82.97
2023-01-17T14:21:06.145Z,83.03
2023-01-17T14:24:16.899Z,82.81
2023-01-17T14:27:34.721Z,83.22
2023-01-17T14:30:44.001Z,82.60
2023-01-17T14:33:50.010Z,83.02
2023-01-17T14:37:12.891Z,83.09
2023-01-17T14:40:27.985Z,83.13
2023-01-17T14:43:42.572Z,83.17
2023-01-17T14:46:49.053Z,83.24
2023-01-17T14:50:21.015Z,83.17
2023-01-17T14:53:32.223Z,83.38
2023-01-17T14:56:38.991Z,83.29
2023-01-17T14:59:46.424Z,83.24
2023-01-17T15:02:52.116Z,82.99
2023-01-17T15:05:58.155Z,83.10
2023-01-17T15:09:10.053Z,82.91
2023-01-17T15:12:17.061Z,83.10
2023-01-17T15:15:28.454Z,83.05
2023-01-17T15:18:36.962Z,82.69
2023-01-17T15:21:43.178Z,81.99
2023-01-17T15:24:47.931Z,82.35
2023-01-17T15:27:54.035Z,82.24
2023-01-17T15:31:26.019Z,82.61
2023-01-17T15:34:38.917Z,82.65
2023-01-17T15:37:53.836Z,82.91
2023-01-17T15:41:14.986Z,82.65
2023-01-17T15:44:46.730Z,82.90
2023-01-17T15:47:52.236Z,82.60
2023-01-17T15:51:08.423Z,82.55
2023-01-17T15:54:32.936Z,82.51
2023-01-17T15:57:41.006Z,82.70
2023-01-17T16:00:52.934Z,82.94
2023-01-17T16:03:56.540Z,83.26
2023-01-17T16:07:17.562Z,83.07
2023-01-17T16:10:25.187Z,83.50
2023-01-17T16:13:33.981Z,83.46
2023-01-17T16:16:39.262Z,83.99
2023-01-17T16:19:44.030Z,84.07
2023-01-17T16:23:00.367Z,84.21
2023-01-17T16:26:05.489Z,84.82
2023-01-17T16:29:10.324Z,86.14
2023-01-17T16:32:18.019Z,86.24
2023-01-17T16:35:34.929Z,86.63
2023-01-17T16:38:49.138Z,87.31
2023-01-17T16:42:03.194Z,88.53
2023-01-17T16:45:14.216Z,88.91
2023-01-17T16:48:20.288Z,89.96
2023-01-17T16:51:30.190Z,91.87
2023-01-17T16:54:36.977Z,91.92
2023-01-17T16:57:46.955Z,92.29
2023-01-17T17:00:56.098Z,93.93
2023-01-17T17:04:03.017Z,94.77
2023-01-17T17:07:14.006Z,94.51
2023-01-17T17:10:26.001Z,94.49
2023-01-17T17:13:36.626Z,94.83
2023-01-17T17:16:51.853Z,95.56
2023-01-17T17:20:01.022Z,96.80
2023-01-17T17:23:11.163Z,96.65
2023-01-17T17:26:33.923Z,96.58
2023-01-17T17:29:42.384Z,97.09
2023-01-17T17:32:48.193Z,97.91
2023-01-17T17:35:55.182Z,98.27
2023-01-17T17:39:05.890Z,97.97
2023-01-17T17:42:20.104Z,98.63
2023-01-17T17:45:25.079Z,98.91
2023-01-17T17:48:29.990Z,98.21
2023-01-17T17:51:39.572Z,98.82
2023-01-17T17:54:45.675Z,99.65
2023-01-17T17:57:59.216Z,100.00
2023-01-17T18:01:09.542Z,100.00
2023-01-17T18:04:14.312Z,100.00
2023-01-17T18:07:27.140Z,100.00
2023-01-17T18:10:44.860Z,100.00
2023-01-17T18:13:52.904Z,100.00
2023-01-17T18:16:58.996Z,100.00
2023-01-17T18:20:14.597Z,100.00
2023-01-17T18:23:30.871Z,100.00
2023-01-17T18:26:47.809Z,100.00
2023-01-17T18:29:51.541Z,100.00
2023-01-17T18:32:55.457Z,100.00
2023-01-17T18:36:04.869Z,100.00
2023-01-17T18:39:32.969Z,100.00
2023-01-17T18:42:45.339Z,100.00
2023-01-17T18:45:54.149Z,100.00
2023-01-17T18:49:01.000Z,100.00
2023-01-17T18:52:20.036Z,100.00
2023-01-17T18:55:39.534Z,100.00
2023-01-17T18:58:47.649Z,100.00
2023-01-17T19:01:58.997Z,100.00
2023-01-17T19:05:05.985Z,100.00
2023-01-17T19:08:10.252Z,100.00
2023-01-17T19:11:13.939Z,100.00
2023-01-17T19:14:17.433Z,100.00
2023-01-17T19:17:28.211Z,100.00
2023-01-17T19:20:35.740Z,100.00
2023-01-17T19:23:42.086Z,100.00
2023-01-17T19:26:59.844Z,100.00
2023-01-17T19:30:10.155Z,100.00
2023-01-17T19:33:24.947Z,100.00
2023-01-17T19:36:40.901Z,100.00
2023-01-17T19:39:53.921Z,100.00
2023-01-17T19:43:05.055Z,100.00
2023-01-17T19:46:12.192Z,100.00
2023-01-17T19:49:24.972Z,100.00
2023-01-17T19:52:34.010Z,100.00
2023-01-17T19:55:41.869Z,100.00
2023-01-17T19:58:54.866Z,100.00
2023-01-17T20:02:05.676Z,100.00
2023-01-17T20:05:18.907Z,100.00
2023-01-17T20:08:30.985Z,100.00
2023-01-17T20:11:45.985Z,100.00
2023-01-17T20:14:54.500Z,100.00
2023-01-17T20:17:59.961Z,100.00
2023-01-17T20:21:17.875Z,100.00
2023-01-17T20:24:22.494Z,100.00
2023-01-17T20:27:38.885Z,100.00
2023-01-17T20:30:49.891Z,100.00
2023-01-17T20:33:55.213Z,100.00
2023-01-17T20:37:08.741Z,100.00
2023-01-17T20:40:25.926Z,100.00
2023-01-17T20:43:44.978Z,100.00
2023-01-17T20:46:55.520Z,100.00
2023-01-17T20:49:59.191Z,100.00
2023-01-17T20:53:06.339Z,100.00
2023-01-17T20:56:14.931Z,100.00
2023-01-17T20:59:22.921Z,100.00
2023-01-17T21:02:28.642Z,100.00
2023-01-17T21:05:45.971Z,100.00
2023-01-17T21:08:50.884Z,100.00
2023-01-17T21:12:07.870Z,100.00
2023-01-17T21:15:17.446Z,100.00
2023-01-17T21:18:31.954Z,100.00
2023-01-17T21:21:35.679Z,100.00
2023-01-17T21:24:45.953Z,100.00
2023-01-17T21:27:49.945Z,100.00
2023-01-17T21:30:56.310Z,100.00
2023-01-17T21:34:07.231Z,100.00
2023-01-17T21:37:14.942Z,100.00
2023-01-17T21:40:28.246Z,100.00
2023-01-17T21:43:32.858Z,100.00
2023-01-17T21:46:40.750Z,100.00
2023-01-17T21:49:44.039Z,100.00
2023-01-17T21:52:50.917Z,100.00
2023-01-17T21:56:19.906Z,100.00
2023-01-17T21:59:27.971Z,100.00
2023-01-17T22:02:30.833Z,100.00
2023-01-17T22:05:35.243Z,100.00
2023-01-17T22:08:38.937Z,100.00
2023-01-17T22:11:44.141Z,100.00
2023-01-17T22:14:49.076Z,100.00
2023-01-17T22:17:55.969Z,100.00
2023-01-17T22:21:04.707Z,100.00
2023-01-17T22:24:13.147Z,100.00
2023-01-17T22:27:17.433Z,100.00
2023-01-17T22:30:21.886Z,100.00
2023-01-17T22:33:25.227Z,100.00
2023-01-17T22:36:33.888Z,100.00
2023-01-17T22:39:38.664Z,100.00
2023-01-17T22:42:41.955Z,100.00
2023-01-17T22:45:46.067Z,100.00
2023-01-17T22:48:52.267Z,100.00
2023-01-17T22:51:57.561Z,100.00
2023-01-17T22:55:01.380Z,100.00
2023-01-17T22:58:04.447Z,100.00
2023-01-17T23:01:20.095Z,100.00
2023-01-17T23:04:23.141Z,100.00
2023-01-17T23:07:27.040Z,100.00
2023-01-17T23:10:48.891Z,100.00
2023-01-17T23:13:58.502Z,100.00
2023-01-17T23:17:23.876Z,100.00
2023-01-17T23:20:27.037Z,100.00
2023-01-17T23:23:31.933Z,100.00
2023-01-17T23:26:36.383Z,100.00
2023-01-17T23:29:39.048Z,100.00
2023-01-17T23:32:51.960Z,100.00
2023-01-17T23:35:55.949Z,100.00
2023-01-17T23:38:58.737Z,100.00
2023-01-17T23:42:20.439Z,100.00
2023-01-17T23:45:25.036Z,100.00
2023-01-17T23:48:28.100Z,100.00
2023-01-17T23:51:31.503Z,100.00
2023-01-17T23:54:35.114Z,100.00
2023-01-17T23:57:38.715Z,100.00
